北京 の空港の天気 - METARとTAF

北京首都国際空港 ( ZBAA / PEK ) - 中華人民共和国 北京市
飛行場実況気象(Metar)
観測時間05/28 03:00 CST (05/27 19:00 UTC)
風向・風速不定 1m/s
視程6000m
天気現象
なし
気温19℃
湿度78%
気圧1003hPa
METARZBAA 271900Z VRB01MPS 6000 NSC 19/15 Q1003 NOSIG
過去の天気等 Google飛行場航空写真 Wunderground天気予報

過去48時間のMETAR

飛行場予報(TAF)
発表時間: 5/27 23:30 CST (5/27 15:30 UTC)
予報対象時間: 28日2時 CST ~ 29日2時 CST
風向・風速北 4m/s
視程10km以上
なし
28日10時 CST ~ 28日11時 CST に徐々に
風向・風速東北東 6m/s
TAF ZBAA 271530Z 2718/2818 01004MPS CAVOK TX30/2807Z TN17/2721Z
BECMG 2802/2803 07006MPS